Time;durP1;ratioP1;P1;durP2;ratioP2;P2;SDS_P1;SDS_P2;PMS_P1;PMS_P2;Temp;Humidity;BMP_temperature;BMP_pressure;BME280_temperature;BME280_humidity;BME280_pressure;Samples;Min_cycle;Max_cycle;Signal;HPM_P1;HPM_P2
2023/01/13 00:01:12;;;;;;;19.00;5.82;;;8.20;99.90;;;;;;4922241;29;20032;-74
2023/01/13 00:03:38;;;;;;;18.88;5.55;;;8.10;99.90;;;;;;4923018;29;20106;-74
2023/01/13 00:06:05;;;;;;;18.10;6.53;;;8.10;99.90;;;;;;4922998;29;20068;-74
2023/01/13 00:08:31;;;;;;;17.90;4.65;;;8.00;99.90;;;;;;4922586;29;20719;-74
2023/01/13 00:10:56;;;;;;;10.50;4.22;;;8.00;99.90;;;;;;4922698;29;20044;-74
2023/01/13 00:13:25;;;;;;;24.88;6.80;;;8.00;99.90;;;;;;4921992;28;20085;-74
2023/01/13 00:15:58;;;;;;;14.88;4.97;;;8.00;99.90;;;;;;4922042;29;20575;-74
2023/01/13 00:18:25;;;;;;;13.07;6.07;;;8.00;99.90;;;;;;4922799;28;20044;-74
2023/01/13 00:20:57;;;;;;;19.88;6.28;;;8.00;99.90;;;;;;4922652;29;20083;-74
2023/01/13 00:23:23;;;;;;;13.75;5.05;;;7.90;99.90;;;;;;4922271;28;20506;-74
2023/01/13 00:25:49;;;;;;;16.88;4.97;;;8.00;99.90;;;;;;4922187;29;20086;-75
2023/01/13 00:28:14;;;;;;;23.85;6.20;;;7.90;99.90;;;;;;4921718;28;20137;-74
2023/01/13 00:30:40;;;;;;;22.73;6.55;;;7.90;99.90;;;;;;4922733;28;20040;-74
2023/01/13 00:33:05;;;;;;;19.88;7.18;;;7.90;99.90;;;;;;4978754;28;20053;-74
2023/01/13 00:35:31;;;;;;;14.88;6.78;;;7.90;99.90;;;;;;5003325;28;20081;-74
2023/01/13 00:37:57;;;;;;;26.10;6.72;;;7.80;99.90;;;;;;4908599;28;20040;-74
2023/01/13 00:40:22;;;;;;;17.33;4.95;;;7.80;99.90;;;;;;4925625;28;20402;-74
2023/01/13 00:45:32;;;;;;;23.40;7.95;;;7.80;99.90;;;;;;4925339;28;20446;-74
2023/01/13 00:47:57;;;;;;;14.88;5.18;;;7.70;99.90;;;;;;4925206;28;20040;-74
2023/01/13 00:50:23;;;;;;;14.93;5.90;;;7.80;99.90;;;;;;4925584;28;20387;-74
2023/01/13 00:52:48;;;;;;;15.23;5.85;;;7.70;99.90;;;;;;4925278;28;20048;-74
2023/01/13 00:55:14;;;;;;;24.77;8.07;;;7.70;99.90;;;;;;4926285;28;20051;-74
2023/01/13 00:57:40;;;;;;;17.23;5.55;;;7.70;99.90;;;;;;4924572;28;20091;-74
2023/01/13 01:00:06;;;;;;;22.25;5.70;;;7.70;99.90;;;;;;4925252;28;20086;-74
2023/01/13 01:02:31;;;;;;;11.98;5.80;;;7.70;99.90;;;;;;4925240;28;20044;-74
2023/01/13 01:04:58;;;;;;;18.42;5.32;;;7.70;99.90;;;;;;4925447;28;20051;-74
2023/01/13 01:07:24;;;;;;;20.27;6.13;;;7.60;99.90;;;;;;4925660;29;20044;-74
2023/01/13 01:09:49;;;;;;;22.63;6.50;;;7.60;99.90;;;;;;4924394;28;20479;-74
2023/01/13 01:12:15;;;;;;;20.55;7.45;;;7.60;99.90;;;;;;4925372;28;20050;-74
2023/01/13 01:14:41;;;;;;;13.93;4.85;;;7.60;99.90;;;;;;4925656;28;20044;-74
2023/01/13 01:17:06;;;;;;;22.67;6.63;;;7.60;99.90;;;;;;4925072;28;20047;-74
2023/01/13 01:19:36;;;;;;;18.20;5.97;;;7.50;99.90;;;;;;4925452;28;20087;-74
2023/01/13 01:22:01;;;;;;;16.17;5.10;;;7.50;99.90;;;;;;4924697;29;20051;-74
2023/01/13 01:24:27;;;;;;;30.15;8.18;;;7.50;99.90;;;;;;4925018;28;20036;-74
2023/01/13 01:26:52;;;;;;;15.65;6.25;;;7.50;99.90;;;;;;4919434;28;20535;-74
2023/01/13 01:29:18;;;;;;;13.00;6.22;;;7.50;99.90;;;;;;4906412;29;20047;-74
2023/01/13 01:31:44;;;;;;;15.88;5.03;;;7.50;99.90;;;;;;4907353;28;20088;-74
2023/01/13 01:34:09;;;;;;;15.82;5.82;;;7.50;99.90;;;;;;4909317;29;20035;-74
2023/01/13 01:36:35;;;;;;;16.38;4.75;;;7.50;99.90;;;;;;4924942;28;20048;-73
2023/01/13 01:39:02;;;;;;;17.35;7.50;;;7.50;99.90;;;;;;4907423;28;20051;-74
2023/01/13 01:41:31;;;;;;;28.90;6.88;;;7.40;99.90;;;;;;4924078;29;20043;-74
2023/01/13 01:44:01;;;;;;;18.20;5.90;;;7.40;99.90;;;;;;4924767;29;20402;-74
2023/01/13 01:46:38;;;;;;;11.85;5.55;;;7.40;99.90;;;;;;4924609;29;20051;-75
2023/01/13 01:49:22;;;;;;;18.58;5.50;;;7.40;99.90;;;;;;4924411;29;20071;-74
2023/01/13 01:51:56;;;;;;;12.95;5.03;;;7.40;99.90;;;;;;4925279;29;20457;-74
2023/01/13 01:54:26;;;;;;;16.75;5.15;;;7.50;99.90;;;;;;4924872;28;20056;-74
2023/01/13 01:56:52;;;;;;;16.08;6.68;;;7.50;99.90;;;;;;4923779;29;20059;-74
2023/01/13 01:59:18;;;;;;;19.88;8.20;;;7.50;99.90;;;;;;4925217;29;20040;-74
2023/01/13 02:01:44;;;;;;;22.63;7.95;;;7.50;99.90;;;;;;4924790;29;20051;-74
2023/01/13 02:04:18;;;;;;;15.85;5.40;;;7.50;99.90;;;;;;4924827;29;20163;-74
2023/01/13 02:06:46;;;;;;;19.80;7.60;;;7.50;99.90;;;;;;4924909;28;20044;-74
2023/01/13 02:09:12;;;;;;;17.25;7.88;;;7.50;99.90;;;;;;4924204;29;20080;-74
2023/01/13 02:14:25;;;;;;;20.63;6.45;;;7.50;99.90;;;;;;4924708;28;20055;-74
2023/01/13 02:17:29;;;;;;;16.10;6.55;;;7.50;99.90;;;;;;4924291;29;20040;-74
2023/01/13 02:20:14;;;;;;;11.15;5.45;;;7.50;99.90;;;;;;4924236;29;20068;-75
2023/01/13 02:22:49;;;;;;;20.42;6.43;;;7.50;99.90;;;;;;4924405;28;20144;-74
2023/01/13 02:26:04;;;;;;;12.82;7.25;;;7.50;99.90;;;;;;4924422;29;20505;-74
2023/01/13 02:31:46;;;;;;;12.18;6.63;;;7.50;99.90;;;;;;4924018;28;20047;-74
2023/01/13 02:34:29;;;;;;;15.25;5.68;;;7.50;99.90;;;;;;4923801;28;20054;-74
2023/01/13 02:37:09;;;;;;;17.63;6.72;;;7.40;99.90;;;;;;4924573;29;20043;-74
2023/01/13 02:39:44;;;;;;;13.35;5.35;;;7.40;99.90;;;;;;4923674;28;20271;-74
2023/01/13 02:45:37;;;;;;;17.92;6.05;;;7.40;99.90;;;;;;4912083;29;20110;-74
2023/01/13 02:48:06;;;;;;;21.27;6.30;;;7.40;99.90;;;;;;4923774;29;20522;-74
2023/01/13 02:50:41;;;;;;;27.67;6.30;;;7.40;99.90;;;;;;4923894;29;20502;-74
2023/01/13 02:53:14;;;;;;;24.80;7.80;;;7.50;99.90;;;;;;4923039;29;20054;-74
2023/01/13 02:55:42;;;;;;;;;;;7.50;99.90;;;;;;4923878;28;20048;-74
2023/01/13 02:58:12;;;;;;;23.88;7.63;;;7.50;99.90;;;;;;4980714;28;20284;-74
2023/01/13 03:00:39;;;;;;;16.40;6.43;;;7.50;99.90;;;;;;5038243;23;20027;-74
2023/01/13 03:03:04;;;;;;;31.17;7.78;;;7.50;99.90;;;;;;4917428;29;20561;-73
2023/01/13 03:05:32;;;;;;;20.20;6.60;;;7.50;99.90;;;;;;4919107;29;20126;-74
2023/01/13 03:08:20;;;;;;;10.88;5.70;;;7.50;99.90;;;;;;4923997;29;20489;-74
2023/01/13 03:11:14;;;;;;;23.42;7.50;;;7.60;99.90;;;;;;4924496;29;20747;-74
2023/01/13 03:13:49;;;;;;;16.83;5.72;;;7.60;99.90;;;;;;4923212;29;20056;-74
2023/01/13 03:16:41;;;;;;;16.08;5.38;;;7.60;99.90;;;;;;4919732;28;20047;-74
2023/01/13 03:19:20;;;;;;;11.00;4.43;;;7.70;99.90;;;;;;4924113;29;20564;-74
2023/01/13 03:22:30;;;;;;;21.83;7.25;;;7.60;99.90;;;;;;4923486;28;20060;-74
2023/01/13 03:25:03;;;;;;;17.42;6.40;;;7.70;99.90;;;;;;4935461;28;20051;-74
2023/01/13 03:27:38;;;;;;;19.98;7.03;;;7.70;99.90;;;;;;4923094;28;20059;-74
2023/01/13 03:30:18;;;;;;;11.27;4.18;;;7.60;99.90;;;;;;4924020;29;20044;-74
2023/01/13 03:32:49;;;;;;;14.57;4.90;;;7.60;99.90;;;;;;4923465;28;20062;-74
2023/01/13 03:35:21;;;;;;;13.20;4.97;;;7.60;99.90;;;;;;4923368;28;20052;-74
2023/01/13 03:37:59;;;;;;;8.68;4.03;;;7.60;99.90;;;;;;4939369;29;20092;-74
2023/01/13 03:40:28;;;;;;;16.52;3.65;;;7.60;99.90;;;;;;4924223;28;20074;-74
2023/01/13 03:45:54;;;;;;;13.95;5.15;;;7.50;99.90;;;;;;4923405;29;20138;-74
2023/01/13 03:48:21;;;;;;;17.15;4.47;;;7.60;99.90;;;;;;4924188;28;20052;-74
2023/01/13 03:50:50;;;;;;;20.85;5.10;;;7.50;99.90;;;;;;4924296;29;20044;-74
2023/01/13 03:53:38;;;;;;;20.67;5.18;;;7.50;99.90;;;;;;4924541;29;20079;-74
2023/01/13 03:56:09;;;;;;;13.60;5.65;;;7.40;99.90;;;;;;4922678;28;20447;-74
2023/01/13 03:58:40;;;;;;;15.60;5.63;;;7.40;99.90;;;;;;4923974;28;20058;-74
2023/01/13 04:01:17;;;;;;;15.10;7.63;;;7.40;99.90;;;;;;4922367;28;20059;-74
2023/01/13 04:04:09;;;;;;;17.88;5.47;;;7.40;99.90;;;;;;4923840;28;20473;-74
2023/01/13 04:06:46;;;;;;;18.95;5.60;;;7.30;99.90;;;;;;4907172;29;20470;-74
2023/01/13 04:09:52;;;;;;;21.25;7.15;;;7.30;99.90;;;;;;4925672;29;20069;-74
2023/01/13 04:15:19;;;;;;;19.35;6.57;;;7.30;99.90;;;;;;4926320;29;20047;-74
2023/01/13 04:17:45;;;;;;;22.00;8.02;;;7.30;99.90;;;;;;4927573;29;20444;-74
2023/01/13 04:20:11;;;;;;;17.40;6.88;;;7.40;99.90;;;;;;4926592;29;20040;-74
2023/01/13 04:22:37;;;;;;;16.98;5.32;;;7.40;99.90;;;;;;4927225;29;20071;-74
2023/01/13 04:25:03;;;;;;;14.85;5.93;;;7.40;99.90;;;;;;4921631;29;20029;-74
2023/01/13 04:27:28;;;;;;;20.15;5.55;;;7.40;99.90;;;;;;4907220;28;20055;-74
2023/01/13 04:29:54;;;;;;;21.25;5.80;;;7.50;99.90;;;;;;4907336;29;20063;-74
2023/01/13 04:32:19;;;;;;;16.65;5.47;;;7.50;99.90;;;;;;4908102;29;20127;-74
2023/01/13 04:34:45;;;;;;;15.18;4.18;;;7.50;99.90;;;;;;4908654;29;20486;-74
2023/01/13 04:37:11;;;;;;;19.67;5.93;;;7.50;99.90;;;;;;4907308;29;20453;-74
2023/01/13 04:39:36;;;;;;;31.55;6.95;;;7.50;99.90;;;;;;4908202;29;20565;-74
2023/01/13 04:42:02;;;;;;;15.65;5.82;;;7.60;99.90;;;;;;4906584;29;20048;-74
2023/01/13 04:44:30;;;;;;;15.35;5.07;;;7.60;99.90;;;;;;4907420;29;20048;-74
2023/01/13 04:46:57;;;;;;;19.20;5.30;;;7.60;99.90;;;;;;4906802;29;20052;-74
2023/01/13 04:49:23;;;;;;;9.77;3.97;;;7.70;99.90;;;;;;4907764;29;20051;-74
2023/01/13 04:51:48;;;;;;;16.70;4.97;;;7.70;99.90;;;;;;4905990;29;20044;-74
2023/01/13 04:54:15;;;;;;;16.00;5.28;;;7.70;99.90;;;;;;4908094;29;20643;-74
2023/01/13 04:56:41;;;;;;;23.48;6.72;;;7.70;99.90;;;;;;4909799;29;20061;-74
2023/01/13 04:59:09;;;;;;;14.02;3.42;;;7.70;99.90;;;;;;4907141;28;20505;-74
2023/01/13 05:01:34;;;;;;;11.30;4.13;;;7.70;99.90;;;;;;4907456;28;20057;-74
2023/01/13 05:04:00;;;;;;;9.85;4.50;;;7.70;99.90;;;;;;4918450;29;20633;-74
2023/01/13 05:06:25;;;;;;;15.80;5.13;;;7.70;99.90;;;;;;4925744;29;20039;-74
2023/01/13 05:08:51;;;;;;;15.68;4.68;;;7.70;99.90;;;;;;4908769;29;20056;-73
2023/01/13 05:17:01;;;;;;;10.60;3.88;;;7.70;99.90;;;;;;4925310;29;20551;-74
2023/01/13 05:19:33;;;;;;;10.43;4.55;;;7.80;99.90;;;;;;4924584;28;20052;-74
2023/01/13 05:27:28;;;;;;;9.20;5.47;;;7.80;99.90;;;;;;4906596;28;20048;-74
2023/01/13 05:29:54;;;;;;;10.02;3.78;;;7.80;99.90;;;;;;4908791;29;20101;-74
2023/01/13 05:32:20;;;;;;;17.67;4.68;;;7.80;99.90;;;;;;4907431;29;20048;-74
2023/01/13 05:34:46;;;;;;;11.98;4.35;;;7.80;99.90;;;;;;4906018;29;20111;-74
2023/01/13 05:37:12;;;;;;;14.95;4.32;;;7.80;99.90;;;;;;4915824;29;20468;-74
2023/01/13 05:45:07;;;;;;;16.80;4.90;;;7.90;99.90;;;;;;4924112;29;20059;-74
2023/01/13 05:47:33;;;;;;;9.35;3.80;;;7.90;99.90;;;;;;4924423;29;20555;-74
2023/01/13 05:49:58;;;;;;;11.48;3.75;;;7.90;99.90;;;;;;4925651;28;20047;-73
2023/01/13 05:52:24;;;;;;;28.45;5.88;;;7.90;99.90;;;;;;4924444;29;20482;-74
2023/01/13 05:54:50;;;;;;;8.07;3.05;;;7.90;99.90;;;;;;4923699;29;20040;-74
2023/01/13 05:57:15;;;;;;;21.13;4.20;;;7.90;99.90;;;;;;4939845;29;20070;-74
2023/01/13 05:59:41;;;;;;;14.60;4.47;;;7.90;99.90;;;;;;4925725;29;20456;-74
2023/01/13 06:02:07;;;;;;;18.65;4.32;;;7.90;99.90;;;;;;4939573;28;20095;-74
2023/01/13 06:04:33;;;;;;;19.23;6.25;;;7.80;99.90;;;;;;4919164;29;20473;-74
2023/01/13 06:06:58;;;;;;;8.90;5.47;;;7.80;99.90;;;;;;4915484;29;20128;-73
2023/01/13 06:09:24;;;;;;;16.15;5.32;;;7.90;99.90;;;;;;4923275;29;20051;-73
2023/01/13 06:11:50;;;;;;;12.88;4.88;;;7.80;99.90;;;;;;4922756;29;20040;-73
2023/01/13 06:14:15;;;;;;;10.77;4.57;;;7.90;99.90;;;;;;4919873;28;20135;-73
2023/01/13 06:16:41;;;;;;;18.17;4.47;;;7.80;99.90;;;;;;4919982;28;20047;-74
2023/01/13 06:19:08;;;;;;;16.05;3.92;;;7.80;99.90;;;;;;4906027;29;20071;-74
2023/01/13 06:21:34;;;;;;;12.68;4.95;;;7.80;99.90;;;;;;4906069;29;20043;-74
2023/01/13 06:24:00;;;;;;;9.40;3.50;;;7.80;99.90;;;;;;4906308;28;20044;-74
2023/01/13 06:26:28;;;;;;;12.57;6.60;;;7.80;99.90;;;;;;4918215;28;20032;-74
2023/01/13 06:28:54;;;;;;;16.60;4.88;;;7.80;99.90;;;;;;4923553;29;20044;-75
2023/01/13 06:31:20;;;;;;;18.98;4.22;;;7.80;99.90;;;;;;4922949;29;20500;-73
2023/01/13 06:33:53;;;;;;;10.88;4.68;;;7.80;99.90;;;;;;4924389;29;20047;-74
2023/01/13 06:36:34;;;;;;;12.30;3.97;;;7.80;99.90;;;;;;4918746;28;20075;-74
2023/01/13 06:39:02;;;;;;;12.70;4.38;;;7.80;99.90;;;;;;4922955;29;20039;-75
2023/01/13 06:44:16;;;;;;;7.85;4.15;;;7.80;99.90;;;;;;4918946;29;20496;-75
2023/01/13 06:46:41;;;;;;;8.50;4.32;;;7.80;99.90;;;;;;4923543;29;20086;-74
2023/01/13 06:49:07;;;;;;;19.60;5.30;;;7.70;99.90;;;;;;4924110;29;20075;-73
2023/01/13 06:51:33;;;;;;;10.85;4.10;;;7.70;99.90;;;;;;4918254;29;20480;-74
2023/01/13 06:53:58;;;;;;;17.60;4.88;;;7.70;99.90;;;;;;4905034;29;20468;-77
2023/01/13 06:56:24;;;;;;;13.60;4.50;;;7.70;99.90;;;;;;4918764;29;20043;-74
2023/01/13 06:58:49;;;;;;;14.18;6.20;;;7.60;99.90;;;;;;4915402;29;20051;-74
2023/01/13 07:01:15;;;;;;;13.02;6.88;;;7.60;99.90;;;;;;4903307;29;20060;-74
2023/01/13 07:03:40;;;;;;;23.83;4.65;;;7.60;99.90;;;;;;4904041;29;20240;-74
2023/01/13 07:06:06;;;;;;;6.47;4.00;;;7.60;99.90;;;;;;4901874;29;20048;-74
2023/01/13 07:08:32;;;;;;;10.80;3.78;;;7.60;99.90;;;;;;4902273;29;20043;-74
2023/01/13 07:11:00;;;;;;;8.40;3.78;;;7.60;99.90;;;;;;4904880;28;20391;-74
2023/01/13 07:16:09;;;;;;;10.20;4.97;;;7.60;99.90;;;;;;4914367;29;20055;-74
2023/01/13 07:18:36;;;;;;;14.48;4.93;;;7.60;99.90;;;;;;4935897;28;20559;-74
2023/01/13 07:21:04;;;;;;;9.60;4.75;;;7.60;99.90;;;;;;4911068;29;20032;-74
2023/01/13 07:23:35;;;;;;;9.75;5.28;;;7.60;99.90;;;;;;4910745;29;20055;-75
2023/01/13 07:26:01;;;;;;;10.10;3.72;;;7.60;99.90;;;;;;4903618;29;20254;-74
2023/01/13 07:28:28;;;;;;;10.32;4.75;;;7.70;99.90;;;;;;4904706;29;20055;-75
2023/01/13 07:30:54;;;;;;;19.90;4.78;;;7.60;99.90;;;;;;4904229;29;20041;-76
2023/01/13 07:33:20;;;;;;;15.15;3.65;;;7.70;99.90;;;;;;4907820;29;20081;-76
2023/01/13 07:35:47;;;;;;;14.93;5.93;;;7.70;99.90;;;;;;4905525;29;20048;-76
2023/01/13 07:38:13;;;;;;;14.43;5.15;;;7.70;99.90;;;;;;4913629;29;20172;-76
2023/01/13 07:40:39;;;;;;;15.30;5.32;;;7.70;99.90;;;;;;4922593;29;20036;-76
2023/01/13 07:45:55;;;;;;;8.38;3.58;;;7.70;99.90;;;;;;4925054;29;20117;-75
2023/01/13 07:48:21;;;;;;;18.67;4.07;;;7.70;99.90;;;;;;4925556;29;20040;-76
2023/01/13 07:50:46;;;;;;;21.10;6.93;;;7.80;99.90;;;;;;4917729;28;20283;-76
2023/01/13 07:53:12;;;;;;;16.42;6.32;;;7.80;99.90;;;;;;4930214;28;20573;-76
2023/01/13 07:55:42;;;;;;;23.77;5.40;;;7.80;99.90;;;;;;4921114;29;20490;-76
2023/01/13 07:58:08;;;;;;;8.63;4.63;;;7.80;99.90;;;;;;4935388;29;20572;-75
2023/01/13 08:00:34;;;;;;;12.25;4.35;;;7.80;99.90;;;;;;4926446;29;20044;-75
2023/01/13 08:03:00;;;;;;;15.38;5.82;;;7.90;99.90;;;;;;4925616;28;20047;-76
2023/01/13 08:05:26;;;;;;;12.02;3.65;;;7.90;99.90;;;;;;4926529;29;20105;-76
2023/01/13 08:07:51;;;;;;;12.65;3.53;;;7.90;99.90;;;;;;4925552;29;20063;-76
2023/01/13 08:10:17;;;;;;;16.88;3.58;;;7.90;99.90;;;;;;4925226;29;20479;-75
2023/01/13 08:15:28;;;;;;;12.25;4.32;;;7.90;99.90;;;;;;4915935;28;20074;-76
2023/01/13 08:17:54;;;;;;;15.55;3.92;;;8.00;99.90;;;;;;4906881;29;20060;-75
2023/01/13 08:20:20;;;;;;;8.13;4.25;;;8.00;99.90;;;;;;4905987;29;20052;-76
2023/01/13 08:22:45;;;;;;;7.22;3.75;;;8.00;99.90;;;;;;4906975;29;20051;-75
2023/01/13 08:25:11;;;;;;;14.05;4.93;;;8.00;99.90;;;;;;4906461;29;20080;-76
2023/01/13 08:27:37;;;;;;;11.90;4.68;;;8.00;99.90;;;;;;4924846;29;20427;-76
2023/01/13 08:30:03;;;;;;;18.27;6.88;;;8.00;99.90;;;;;;4916021;28;20044;-75
2023/01/13 08:32:29;;;;;;;29.60;5.53;;;8.00;99.90;;;;;;4913765;28;20048;-76
2023/01/13 08:34:54;;;;;;;14.07;6.05;;;7.90;99.90;;;;;;4905956;28;20045;-75
2023/01/13 08:37:20;;;;;;;15.82;5.22;;;7.90;99.90;;;;;;4907095;28;20058;-77
2023/01/13 08:39:45;;;;;;;19.33;4.22;;;7.90;99.90;;;;;;4907562;29;20056;-77
2023/01/13 08:42:11;;;;;;;8.90;3.58;;;7.90;99.90;;;;;;4904367;29;20130;-76
2023/01/13 08:44:36;;;;;;;7.30;3.10;;;7.80;99.90;;;;;;4922449;28;20048;-77
2023/01/13 08:47:03;;;;;;;9.80;3.95;;;7.80;99.90;;;;;;4924973;29;20048;-75
2023/01/13 08:49:28;;;;;;;22.33;4.00;;;7.80;99.90;;;;;;4910951;29;20048;-76
2023/01/13 08:51:54;;;;;;;10.25;3.58;;;7.70;99.90;;;;;;4905998;29;20419;-76
2023/01/13 08:54:20;;;;;;;22.55;4.60;;;7.70;99.90;;;;;;4905665;29;20043;-77
2023/01/13 08:56:46;;;;;;;11.57;4.57;;;7.70;99.90;;;;;;4905303;29;20122;-77
2023/01/13 08:59:16;;;;;;;10.73;4.03;;;7.60;99.90;;;;;;4907239;29;20577;-76
2023/01/13 09:01:42;;;;;;;16.48;5.00;;;7.60;99.90;;;;;;4906043;28;20127;-77
2023/01/13 09:04:18;;;;;;;17.05;5.35;;;7.60;99.90;;;;;;4918315;29;20059;-76
2023/01/13 09:06:44;;;;;;;16.15;4.50;;;7.60;99.90;;;;;;4924544;28;20054;-77
2023/01/13 09:09:10;;;;;;;21.05;5.07;;;7.60;99.90;;;;;;4911128;29;20048;-77
2023/01/13 09:14:27;;;;;;;15.30;4.68;;;7.50;99.90;;;;;;4910652;28;20191;-77
2023/01/13 09:16:53;;;;;;;15.00;5.85;;;7.60;99.90;;;;;;4924079;29;20043;-78
2023/01/13 09:19:18;;;;;;;11.13;3.55;;;7.50;99.90;;;;;;4924643;28;20047;-78
2023/01/13 09:21:44;;;;;;;16.70;5.80;;;7.50;99.90;;;;;;4918452;28;20048;-77
2023/01/13 09:24:10;;;;;;;15.70;5.82;;;7.50;99.90;;;;;;4907085;28;20513;-77
2023/01/13 09:26:36;;;;;;;17.35;4.45;;;7.50;99.90;;;;;;4905954;28;20051;-77
2023/01/13 09:29:02;;;;;;;14.95;7.13;;;7.50;99.90;;;;;;5018276;28;20097;-78
2023/01/13 09:31:28;;;;;;;13.65;4.50;;;7.50;99.90;;;;;;4918823;28;20122;-82
2023/01/13 09:36:38;;;;;;;16.98;4.45;;;7.50;99.90;;;;;;4906668;29;20110;-77
2023/01/13 09:39:04;;;;;;;10.50;5.13;;;7.50;99.90;;;;;;4910214;28;20135;-79
2023/01/13 09:44:25;;;;;;;9.90;4.47;;;7.50;99.90;;;;;;4925753;29;20547;-77
2023/01/13 09:46:55;;;;;;;13.85;5.00;;;7.50;99.90;;;;;;4907459;29;20048;-78
2023/01/13 09:49:36;;;;;;;13.82;3.92;;;7.60;99.90;;;;;;4920418;28;20502;-77
2023/01/13 09:52:08;;;;;;;9.63;4.53;;;7.60;99.90;;;;;;4924036;29;20228;-77
2023/01/13 09:54:45;;;;;;;12.10;5.70;;;7.60;99.90;;;;;;4924292;29;20514;-77
2023/01/13 09:57:16;;;;;;;24.60;3.67;;;7.60;99.90;;;;;;4923152;28;20390;-77
2023/01/13 09:59:42;;;;;;;9.23;4.03;;;7.70;99.90;;;;;;4924742;29;20437;-77
2023/01/13 10:02:23;;;;;;;15.02;5.43;;;7.70;99.90;;;;;;4919989;28;20537;-81
2023/01/13 10:05:17;;;;;;;16.17;4.82;;;7.70;99.90;;;;;;4924379;29;20063;-82
2023/01/13 10:07:57;;;;;;;11.68;4.55;;;7.80;99.90;;;;;;4909852;29;20051;-79
2023/01/13 10:10:45;;;;;;;16.38;5.13;;;7.80;99.90;;;;;;4895774;29;20406;-78
2023/01/13 10:13:18;;;;;;;12.50;5.30;;;7.80;99.90;;;;;;4897679;28;20079;-80
2023/01/13 10:15:52;;;;;;;15.40;4.68;;;7.80;99.90;;;;;;4895703;29;20142;-79
2023/01/13 10:18:34;;;;;;;6.95;3.28;;;7.90;99.90;;;;;;4896897;29;20075;-78
2023/01/13 10:21:37;;;;;;;7.65;4.03;;;7.90;99.90;;;;;;4895360;28;20147;-78
2023/01/13 10:24:11;;;;;;;13.45;5.10;;;7.90;99.90;;;;;;4904094;29;20051;-79
2023/01/13 10:27:10;;;;;;;6.75;3.42;;;8.00;99.90;;;;;;4909228;29;20063;-78
2023/01/13 10:29:35;;;;;;;7.55;3.30;;;8.00;99.90;;;;;;4913288;29;20060;-78
2023/01/13 10:32:01;;;;;;;10.27;3.60;;;8.00;99.90;;;;;;4923526;29;20108;-78
2023/01/13 10:34:27;;;;;;;12.25;4.35;;;8.00;99.90;;;;;;4924376;29;20521;-78
2023/01/13 10:36:59;;;;;;;12.43;3.42;;;8.00;99.90;;;;;;4915335;29;20033;-78
2023/01/13 10:39:25;;;;;;;19.60;6.37;;;8.00;99.90;;;;;;4904729;29;20454;-78
2023/01/13 10:42:01;;;;;;;8.63;3.33;;;8.10;99.90;;;;;;4902681;28;20296;-78
2023/01/13 10:44:27;;;;;;;9.73;3.20;;;8.10;99.90;;;;;;4904853;29;20087;-78
2023/01/13 10:46:55;;;;;;;19.83;5.55;;;8.10;99.90;;;;;;4904716;29;20083;-78
2023/01/13 10:49:37;;;;;;;11.05;4.50;;;8.10;99.90;;;;;;4926004;29;20052;-79
2023/01/13 10:52:25;;;;;;;15.70;4.10;;;8.10;99.90;;;;;;4911699;29;20197;-78
2023/01/13 10:54:52;;;;;;;26.77;4.03;;;8.10;99.90;;;;;;4922478;28;20523;-85
2023/01/13 10:57:21;;;;;;;12.65;4.22;;;8.10;99.90;;;;;;4921791;29;20040;-78
2023/01/13 10:59:47;;;;;;;9.07;3.60;;;8.20;99.90;;;;;;4924183;29;20044;-78
2023/01/13 11:02:24;;;;;;;14.48;3.25;;;8.20;99.90;;;;;;5001243;28;20126;-78
2023/01/13 11:04:52;;;;;;;10.45;3.72;;;8.20;99.90;;;;;;4903405;29;20040;-78
2023/01/13 11:07:34;;;;;;;6.35;3.42;;;8.30;99.90;;;;;;4904386;28;20067;-78
2023/01/13 11:10:20;;;;;;;7.90;3.63;;;8.30;99.90;;;;;;4921774;29;20043;-77
2023/01/13 11:13:10;;;;;;;8.98;3.88;;;8.30;99.90;;;;;;4921339;28;20043;-78
2023/01/13 11:16:04;;;;;;;10.98;3.45;;;8.30;99.90;;;;;;4923407;29;20156;-78
2023/01/13 11:19:13;;;;;;;10.50;3.92;;;8.40;99.90;;;;;;4912686;29;20550;-78
2023/01/13 11:21:48;;;;;;;8.40;3.58;;;8.40;99.90;;;;;;4903432;28;20126;-78
2023/01/13 11:24:13;;;;;;;10.23;3.92;;;8.40;99.90;;;;;;4902417;29;20047;-78
2023/01/13 11:27:03;;;;;;;9.48;3.75;;;8.40;99.90;;;;;;4922300;29;20441;-78
2023/01/13 11:29:40;;;;;;;26.02;5.15;;;8.40;99.90;;;;;;4923772;29;20371;-78
2023/01/13 11:32:18;;;;;;;10.93;3.83;;;8.40;99.90;;;;;;4916184;28;20055;-78
2023/01/13 11:34:51;;;;;;;15.88;4.45;;;8.40;99.90;;;;;;4904878;29;20418;-78
2023/01/13 11:37:24;;;;;;;14.93;4.95;;;8.40;99.90;;;;;;4903545;29;20056;-78
2023/01/13 11:40:13;;;;;;;8.30;4.15;;;8.40;99.90;;;;;;4917155;29;20048;-78
2023/01/13 11:43:07;;;;;;;10.70;4.05;;;8.40;99.90;;;;;;4921967;29;20058;-78
2023/01/13 11:45:49;;;;;;;7.40;3.25;;;8.40;99.90;;;;;;4921079;29;20255;-78
2023/01/13 11:48:19;;;;;;;16.10;4.20;;;8.50;99.90;;;;;;4914972;29;20453;-78
2023/01/13 11:50:52;;;;;;;6.95;3.55;;;8.50;99.90;;;;;;4904843;29;20048;-78
2023/01/13 11:53:52;;;;;;;11.63;2.75;;;8.50;99.90;;;;;;4904556;29;20051;-78
2023/01/13 11:56:46;;;;;;;10.05;3.65;;;8.50;99.90;;;;;;4904078;29;20052;-78
2023/01/13 11:59:26;;;;;;;11.40;3.72;;;8.50;99.90;;;;;;4911420;28;20069;-78
2023/01/13 12:02:01;;;;;;;6.10;3.05;;;8.50;99.90;;;;;;4914942;29;20070;-78
2023/01/13 12:05:11;;;;;;;10.95;2.72;;;8.50;99.90;;;;;;4923384;29;20051;-78
2023/01/13 12:07:54;;;;;;;11.30;3.28;;;8.50;99.90;;;;;;4934243;28;20388;-78
2023/01/13 12:11:07;;;;;;;4.13;3.08;;;8.60;99.90;;;;;;4920017;29;20059;-78
2023/01/13 12:13:38;;;;;;;15.82;4.43;;;8.60;99.90;;;;;;4924364;28;20067;-78
2023/01/13 12:16:14;;;;;;;8.60;3.33;;;8.60;99.90;;;;;;4923044;28;20051;-78
2023/01/13 12:18:58;;;;;;;11.70;4.32;;;8.60;99.90;;;;;;4917094;28;20037;-78
2023/01/13 12:21:28;;;;;;;5.15;2.65;;;8.60;99.90;;;;;;4912095;29;20052;-78
2023/01/13 12:24:17;;;;;;;7.70;3.30;;;8.50;99.90;;;;;;4903568;29;20048;-78
2023/01/13 12:26:55;;;;;;;10.60;3.28;;;8.60;99.90;;;;;;4905391;29;20052;-78
2023/01/13 12:29:35;;;;;;;13.35;3.70;;;8.60;99.90;;;;;;4923489;29;20374;-78
2023/01/13 12:32:09;;;;;;;8.60;3.08;;;8.60;99.90;;;;;;4925192;28;20044;-78
2023/01/13 12:34:47;;;;;;;7.35;2.75;;;8.60;99.90;;;;;;4925875;29;20518;-78
2023/01/13 12:37:25;;;;;;;4.90;1.70;;;8.60;99.90;;;;;;4916113;29;20127;-77
2023/01/13 12:40:09;;;;;;;7.88;2.28;;;8.60;99.90;;;;;;4914299;29;20048;-78
2023/01/13 12:45:31;;;;;;;7.32;2.78;;;8.60;99.90;;;;;;4918295;29;20475;-78
2023/01/13 12:47:58;;;;;;;8.68;3.38;;;8.60;99.90;;;;;;4925185;29;20071;-78
2023/01/13 12:50:24;;;;;;;9.55;4.85;;;8.60;99.90;;;;;;4923294;29;20040;-77
2023/01/13 12:52:57;;;;;;;13.40;4.22;;;8.60;99.90;;;;;;4907420;29;20059;-77
2023/01/13 12:55:25;;;;;;;9.95;3.38;;;8.60;99.90;;;;;;4905897;29;20052;-78
2023/01/13 12:57:58;;;;;;;5.90;2.40;;;8.70;99.90;;;;;;4906049;29;20052;-77
2023/01/13 13:00:33;;;;;;;6.32;2.85;;;8.60;99.90;;;;;;4911650;29;20041;-78
2023/01/13 13:03:11;;;;;;;14.95;3.35;;;8.60;99.90;;;;;;4925247;28;20047;-78
2023/01/13 13:05:57;;;;;;;15.63;4.50;;;8.60;99.90;;;;;;4925471;29;20129;-78
2023/01/13 13:08:38;;;;;;;8.73;3.15;;;8.60;99.90;;;;;;4923712;28;20127;-78
2023/01/13 13:14:11;;;;;;;12.07;2.83;;;8.60;99.90;;;;;;4925074;29;20130;-78
2023/01/13 13:16:50;;;;;;;18.08;4.10;;;8.60;99.90;;;;;;4919467;28;20283;-81
2023/01/13 13:19:20;;;;;;;8.40;3.22;;;8.60;99.90;;;;;;4916084;29;20047;-82
2023/01/13 13:22:10;;;;;;;6.05;2.75;;;8.60;99.90;;;;;;4924411;29;20059;-83
2023/01/13 13:24:37;;;;;;;13.88;2.58;;;8.60;99.90;;;;;;4916826;28;20503;-79
2023/01/13 13:27:27;;;;;;;10.43;3.30;;;8.60;99.90;;;;;;4916031;29;20035;-79
2023/01/13 13:30:30;;;;;;;10.57;3.83;;;8.70;99.90;;;;;;4925130;28;20101;-79
2023/01/13 13:33:17;;;;;;;3.35;2.33;;;8.70;99.90;;;;;;4919925;28;20052;-79
2023/01/13 13:36:16;;;;;;;15.25;4.78;;;8.60;99.90;;;;;;4925136;29;20109;-79
2023/01/13 13:47:50;;;;;;;6.15;2.50;;;8.70;99.90;;;;;;4926458;28;20063;-83
2023/01/13 13:50:19;;;;;;;9.85;3.80;;;8.70;99.90;;;;;;4925344;28;20114;-81
2023/01/13 13:53:04;;;;;;;15.38;3.88;;;8.70;99.90;;;;;;4920672;29;20402;-81
2023/01/13 13:55:31;;;;;;;11.13;3.90;;;8.70;99.90;;;;;;4922069;29;20043;-79
2023/01/13 13:58:00;;;;;;;8.38;3.13;;;8.70;99.90;;;;;;4935239;28;20110;-81
2023/01/13 14:00:34;;;;;;;10.23;4.93;;;8.60;99.90;;;;;;4916319;28;20050;-82
2023/01/13 14:03:27;;;;;;;10.00;4.63;;;8.60;99.90;;;;;;4932008;29;20052;-76
2023/01/13 14:05:59;;;;;;;7.63;3.13;;;8.60;99.90;;;;;;4922320;28;20083;-75
2023/01/13 14:08:28;;;;;;;25.00;4.38;;;8.60;99.90;;;;;;4913251;28;20043;-79
2023/01/13 14:10:54;;;;;;;8.15;2.90;;;8.60;99.90;;;;;;4919282;29;20398;-76
2023/01/13 14:13:26;;;;;;;6.82;3.00;;;8.60;99.90;;;;;;4917293;29;20040;-77
2023/01/13 14:15:59;;;;;;;21.20;6.28;;;8.60;99.90;;;;;;4921071;29;20221;-77
2023/01/13 14:18:28;;;;;;;14.48;4.07;;;8.60;99.90;;;;;;4921945;29;20039;-75
2023/01/13 14:21:18;;;;;;;7.43;2.53;;;8.60;99.90;;;;;;4922699;29;20044;-76
2023/01/13 14:23:56;;;;;;;5.35;2.08;;;8.70;99.90;;;;;;4940167;28;20081;-75